sensor_id;sensor_type;location;lat;lon;timestamp;temperature;humidity
61841;DHT22;47773;53.174;6.614;2023-03-03T00:01:08;3.30;99.90
61841;DHT22;47773;53.174;6.614;2023-03-03T00:03:34;3.30;99.90
61841;DHT22;47773;53.174;6.614;2023-03-03T00:06:02;3.30;99.90
61841;DHT22;47773;53.174;6.614;2023-03-03T00:08:28;3.30;99.90
61841;DHT22;47773;53.174;6.614;2023-03-03T00:10:53;3.40;99.90
61841;DHT22;47773;53.174;6.614;2023-03-03T00:13:24;3.30;99.90
61841;DHT22;47773;53.174;6.614;2023-03-03T00:15:51;3.30;99.90
61841;DHT22;47773;53.174;6.614;2023-03-03T00:18:55;3.30;99.90
61841;DHT22;47773;53.174;6.614;2023-03-03T00:21:24;3.30;99.90
61841;DHT22;47773;53.174;6.614;2023-03-03T00:23:51;3.30;99.90
61841;DHT22;47773;53.174;6.614;2023-03-03T00:26:30;3.30;99.90
61841;DHT22;47773;53.174;6.614;2023-03-03T00:28:58;3.30;99.90
61841;DHT22;47773;53.174;6.614;2023-03-03T00:33:56;3.30;99.90
61841;DHT22;47773;53.174;6.614;2023-03-03T00:36:28;3.40;99.90
61841;DHT22;47773;53.174;6.614;2023-03-03T00:39:09;3.40;99.90
61841;DHT22;47773;53.174;6.614;2023-03-03T00:41:38;3.40;99.90
61841;DHT22;47773;53.174;6.614;2023-03-03T00:47:25;3.40;99.90
61841;DHT22;47773;53.174;6.614;2023-03-03T00:49:52;3.40;99.90
61841;DHT22;47773;53.174;6.614;2023-03-03T00:52:19;3.40;99.90
61841;DHT22;47773;53.174;6.614;2023-03-03T00:54:45;3.40;99.90
61841;DHT22;47773;53.174;6.614;2023-03-03T00:57:11;3.40;99.90
61841;DHT22;47773;53.174;6.614;2023-03-03T00:59:38;3.40;99.90
61841;DHT22;47773;53.174;6.614;2023-03-03T01:02:04;3.40;99.90
61841;DHT22;47773;53.174;6.614;2023-03-03T01:04:30;3.40;99.90
61841;DHT22;47773;53.174;6.614;2023-03-03T01:06:55;3.40;99.90
61841;DHT22;47773;53.174;6.614;2023-03-03T01:09:21;3.40;99.90
61841;DHT22;47773;53.174;6.614;2023-03-03T01:11:48;3.40;99.90
61841;DHT22;47773;53.174;6.614;2023-03-03T01:14:14;3.40;99.90
61841;DHT22;47773;53.174;6.614;2023-03-03T01:16:39;3.40;99.90
61841;DHT22;47773;53.174;6.614;2023-03-03T01:19:06;3.40;99.90
61841;DHT22;47773;53.174;6.614;2023-03-03T01:21:32;3.40;99.90
61841;DHT22;47773;53.174;6.614;2023-03-03T01:23:58;3.40;99.90
61841;DHT22;47773;53.174;6.614;2023-03-03T01:26:24;3.40;99.90
61841;DHT22;47773;53.174;6.614;2023-03-03T01:28:49;3.30;99.90
61841;DHT22;47773;53.174;6.614;2023-03-03T01:31:15;3.30;99.90
61841;DHT22;47773;53.174;6.614;2023-03-03T01:33:41;3.30;99.90
61841;DHT22;47773;53.174;6.614;2023-03-03T01:36:07;3.30;99.90
61841;DHT22;47773;53.174;6.614;2023-03-03T01:38:37;3.30;99.90
61841;DHT22;47773;53.174;6.614;2023-03-03T01:41:04;3.30;99.90
61841;DHT22;47773;53.174;6.614;2023-03-03T01:43:31;3.30;99.90
61841;DHT22;47773;53.174;6.614;2023-03-03T01:48:43;3.30;99.90
61841;DHT22;47773;53.174;6.614;2023-03-03T01:51:19;3.30;99.90
61841;DHT22;47773;53.174;6.614;2023-03-03T01:53:58;3.30;99.90
61841;DHT22;47773;53.174;6.614;2023-03-03T01:56:25;3.20;99.90
61841;DHT22;47773;53.174;6.614;2023-03-03T01:59:13;3.20;99.90
61841;DHT22;47773;53.174;6.614;2023-03-03T02:01:40;3.20;99.90
61841;DHT22;47773;53.174;6.614;2023-03-03T02:04:06;3.10;99.90
61841;DHT22;47773;53.174;6.614;2023-03-03T02:06:36;3.10;99.90
61841;DHT22;47773;53.174;6.614;2023-03-03T02:09:10;3.10;99.90
61841;DHT22;47773;53.174;6.614;2023-03-03T02:11:37;3.10;99.90
61841;DHT22;47773;53.174;6.614;2023-03-03T02:14:05;3.10;99.90
61841;DHT22;47773;53.174;6.614;2023-03-03T02:16:30;3.10;99.90
61841;DHT22;47773;53.174;6.614;2023-03-03T02:18:56;3.10;99.90
61841;DHT22;47773;53.174;6.614;2023-03-03T02:21:23;3.10;99.90
61841;DHT22;47773;53.174;6.614;2023-03-03T02:26:25;3.10;99.90
61841;DHT22;47773;53.174;6.614;2023-03-03T02:28:51;3.10;99.90
61841;DHT22;47773;53.174;6.614;2023-03-03T02:31:20;3.10;99.90
61841;DHT22;47773;53.174;6.614;2023-03-03T02:33:48;3.10;99.90
61841;DHT22;47773;53.174;6.614;2023-03-03T02:36:16;3.10;99.90
61841;DHT22;47773;53.174;6.614;2023-03-03T02:38:50;3.10;99.90
61841;DHT22;47773;53.174;6.614;2023-03-03T02:41:28;3.10;99.90
61841;DHT22;47773;53.174;6.614;2023-03-03T02:44:13;3.10;99.90
61841;DHT22;47773;53.174;6.614;2023-03-03T02:46:42;3.10;99.90
61841;DHT22;47773;53.174;6.614;2023-03-03T02:49:10;3.10;99.90
61841;DHT22;47773;53.174;6.614;2023-03-03T02:51:36;3.00;99.90
61841;DHT22;47773;53.174;6.614;2023-03-03T02:54:02;2.90;99.90
61841;DHT22;47773;53.174;6.614;2023-03-03T02:56:28;2.90;99.90
61841;DHT22;47773;53.174;6.614;2023-03-03T02:58:54;2.90;99.90
61841;DHT22;47773;53.174;6.614;2023-03-03T03:01:20;2.90;99.90
61841;DHT22;47773;53.174;6.614;2023-03-03T03:03:45;2.80;99.90
61841;DHT22;47773;53.174;6.614;2023-03-03T03:06:11;2.80;99.90
61841;DHT22;47773;53.174;6.614;2023-03-03T03:08:37;2.80;99.90
61841;DHT22;47773;53.174;6.614;2023-03-03T03:11:03;2.70;99.90
61841;DHT22;47773;53.174;6.614;2023-03-03T03:13:31;2.70;99.90
61841;DHT22;47773;53.174;6.614;2023-03-03T03:15:57;2.70;99.90
61841;DHT22;47773;53.174;6.614;2023-03-03T03:18:24;2.60;99.90
61841;DHT22;47773;53.174;6.614;2023-03-03T03:20:50;2.60;99.90
61841;DHT22;47773;53.174;6.614;2023-03-03T03:23:15;2.50;99.90
61841;DHT22;47773;53.174;6.614;2023-03-03T03:25:41;2.40;99.90
61841;DHT22;47773;53.174;6.614;2023-03-03T03:28:11;2.40;99.90
61841;DHT22;47773;53.174;6.614;2023-03-03T03:30:38;2.30;99.90
61841;DHT22;47773;53.174;6.614;2023-03-03T03:33:04;2.30;99.90
61841;DHT22;47773;53.174;6.614;2023-03-03T03:35:32;2.20;99.90
61841;DHT22;47773;53.174;6.614;2023-03-03T03:37:58;2.20;99.90
61841;DHT22;47773;53.174;6.614;2023-03-03T03:40:23;2.10;99.90
61841;DHT22;47773;53.174;6.614;2023-03-03T03:42:54;2.10;99.90
61841;DHT22;47773;53.174;6.614;2023-03-03T03:45:20;2.00;99.90
61841;DHT22;47773;53.174;6.614;2023-03-03T03:47:46;2.00;99.90
61841;DHT22;47773;53.174;6.614;2023-03-03T03:50:12;2.00;99.90
61841;DHT22;47773;53.174;6.614;2023-03-03T03:52:38;1.90;99.90
61841;DHT22;47773;53.174;6.614;2023-03-03T03:55:04;1.90;99.90
61841;DHT22;47773;53.174;6.614;2023-03-03T03:57:30;1.80;99.90
61841;DHT22;47773;53.174;6.614;2023-03-03T03:59:56;1.80;99.90
61841;DHT22;47773;53.174;6.614;2023-03-03T04:02:22;1.80;99.90
61841;DHT22;47773;53.174;6.614;2023-03-03T04:04:47;1.80;99.90
61841;DHT22;47773;53.174;6.614;2023-03-03T04:07:13;1.80;99.90
61841;DHT22;47773;53.174;6.614;2023-03-03T04:09:38;1.80;99.90
61841;DHT22;47773;53.174;6.614;2023-03-03T04:12:04;1.70;99.90
61841;DHT22;47773;53.174;6.614;2023-03-03T04:14:30;1.70;99.90
61841;DHT22;47773;53.174;6.614;2023-03-03T04:16:56;1.70;99.90
61841;DHT22;47773;53.174;6.614;2023-03-03T04:19:22;1.70;99.90
61841;DHT22;47773;53.174;6.614;2023-03-03T04:21:48;1.60;99.90
61841;DHT22;47773;53.174;6.614;2023-03-03T04:24:13;1.70;99.90
61841;DHT22;47773;53.174;6.614;2023-03-03T04:26:39;1.60;99.90
61841;DHT22;47773;53.174;6.614;2023-03-03T04:29:05;1.60;99.90
61841;DHT22;47773;53.174;6.614;2023-03-03T04:31:31;1.60;99.90
61841;DHT22;47773;53.174;6.614;2023-03-03T04:33:56;1.60;99.90
61841;DHT22;47773;53.174;6.614;2023-03-03T04:36:22;1.60;99.90
61841;DHT22;47773;53.174;6.614;2023-03-03T04:38:48;1.60;99.90
61841;DHT22;47773;53.174;6.614;2023-03-03T04:41:14;1.60;99.90
61841;DHT22;47773;53.174;6.614;2023-03-03T04:43:40;1.60;99.90
61841;DHT22;47773;53.174;6.614;2023-03-03T04:46:06;1.50;99.90
61841;DHT22;47773;53.174;6.614;2023-03-03T04:48:32;1.50;99.90
61841;DHT22;47773;53.174;6.614;2023-03-03T04:50:57;1.50;99.90
61841;DHT22;47773;53.174;6.614;2023-03-03T04:53:23;1.50;99.90
61841;DHT22;47773;53.174;6.614;2023-03-03T04:55:50;1.50;99.90
61841;DHT22;47773;53.174;6.614;2023-03-03T04:58:16;1.50;99.90
61841;DHT22;47773;53.174;6.614;2023-03-03T05:00:47;1.40;99.90
61841;DHT22;47773;53.174;6.614;2023-03-03T05:03:17;1.40;99.90
61841;DHT22;47773;53.174;6.614;2023-03-03T05:05:45;1.40;99.90
61841;DHT22;47773;53.174;6.614;2023-03-03T05:08:11;1.40;99.90
61841;DHT22;47773;53.174;6.614;2023-03-03T05:10:37;1.40;99.90
61841;DHT22;47773;53.174;6.614;2023-03-03T05:13:03;1.40;99.90
61841;DHT22;47773;53.174;6.614;2023-03-03T05:15:29;1.40;99.90
61841;DHT22;47773;53.174;6.614;2023-03-03T05:17:55;1.30;99.90
61841;DHT22;47773;53.174;6.614;2023-03-03T05:20:22;1.30;99.90
61841;DHT22;47773;53.174;6.614;2023-03-03T05:22:47;1.30;99.90
61841;DHT22;47773;53.174;6.614;2023-03-03T05:25:13;1.40;99.90
61841;DHT22;47773;53.174;6.614;2023-03-03T05:27:39;1.30;99.90
61841;DHT22;47773;53.174;6.614;2023-03-03T05:30:06;1.30;99.90
61841;DHT22;47773;53.174;6.614;2023-03-03T05:32:32;1.30;99.90
61841;DHT22;47773;53.174;6.614;2023-03-03T05:34:57;1.20;99.90
61841;DHT22;47773;53.174;6.614;2023-03-03T05:37:23;1.20;99.90
61841;DHT22;47773;53.174;6.614;2023-03-03T05:39:49;1.20;99.90
61841;DHT22;47773;53.174;6.614;2023-03-03T05:42:15;1.20;99.90
61841;DHT22;47773;53.174;6.614;2023-03-03T05:44:41;1.20;99.90
61841;DHT22;47773;53.174;6.614;2023-03-03T05:47:06;1.20;99.90
61841;DHT22;47773;53.174;6.614;2023-03-03T05:49:32;1.10;99.90
61841;DHT22;47773;53.174;6.614;2023-03-03T05:51:58;1.20;99.90
61841;DHT22;47773;53.174;6.614;2023-03-03T05:54:24;1.10;99.90
61841;DHT22;47773;53.174;6.614;2023-03-03T05:56:50;1.10;99.90
61841;DHT22;47773;53.174;6.614;2023-03-03T05:59:15;1.10;99.90
61841;DHT22;47773;53.174;6.614;2023-03-03T06:01:41;1.10;99.90
61841;DHT22;47773;53.174;6.614;2023-03-03T06:04:07;1.10;99.90
61841;DHT22;47773;53.174;6.614;2023-03-03T06:06:34;1.10;99.90
61841;DHT22;47773;53.174;6.614;2023-03-03T06:08:59;1.00;99.90
61841;DHT22;47773;53.174;6.614;2023-03-03T06:11:25;1.00;99.90
61841;DHT22;47773;53.174;6.614;2023-03-03T06:13:50;1.00;99.90
61841;DHT22;47773;53.174;6.614;2023-03-03T06:16:16;1.00;99.90
61841;DHT22;47773;53.174;6.614;2023-03-03T06:18:42;1.00;99.90
61841;DHT22;47773;53.174;6.614;2023-03-03T06:21:08;1.10;99.90
61841;DHT22;47773;53.174;6.614;2023-03-03T06:23:33;1.10;99.90
61841;DHT22;47773;53.174;6.614;2023-03-03T06:25:59;1.00;99.90
61841;DHT22;47773;53.174;6.614;2023-03-03T06:28:25;1.10;99.90
61841;DHT22;47773;53.174;6.614;2023-03-03T06:30:54;1.10;99.90
61841;DHT22;47773;53.174;6.614;2023-03-03T06:33:20;1.10;99.90
61841;DHT22;47773;53.174;6.614;2023-03-03T06:35:53;1.10;99.90
61841;DHT22;47773;53.174;6.614;2023-03-03T06:38:19;1.10;99.90
61841;DHT22;47773;53.174;6.614;2023-03-03T06:40:46;1.10;99.90
61841;DHT22;47773;53.174;6.614;2023-03-03T06:43:12;1.10;99.90
61841;DHT22;47773;53.174;6.614;2023-03-03T06:45:38;1.10;99.90
61841;DHT22;47773;53.174;6.614;2023-03-03T06:48:04;1.20;99.90
61841;DHT22;47773;53.174;6.614;2023-03-03T06:50:29;1.20;99.90
61841;DHT22;47773;53.174;6.614;2023-03-03T06:53:10;1.20;99.90
61841;DHT22;47773;53.174;6.614;2023-03-03T06:55:37;1.30;99.90
61841;DHT22;47773;53.174;6.614;2023-03-03T06:58:15;1.40;99.90
61841;DHT22;47773;53.174;6.614;2023-03-03T07:00:43;1.40;99.90
61841;DHT22;47773;53.174;6.614;2023-03-03T07:03:15;1.40;99.90
61841;DHT22;47773;53.174;6.614;2023-03-03T07:05:41;1.50;99.90
61841;DHT22;47773;53.174;6.614;2023-03-03T07:08:19;1.50;99.90
61841;DHT22;47773;53.174;6.614;2023-03-03T07:10:46;1.60;99.90
61841;DHT22;47773;53.174;6.614;2023-03-03T07:13:24;1.60;99.90
61841;DHT22;47773;53.174;6.614;2023-03-03T07:15:52;1.60;99.90
61841;DHT22;47773;53.174;6.614;2023-03-03T07:18:47;1.60;99.90
61841;DHT22;47773;53.174;6.614;2023-03-03T07:21:16;1.70;99.90
61841;DHT22;47773;53.174;6.614;2023-03-03T07:23:44;1.80;99.90
61841;DHT22;47773;53.174;6.614;2023-03-03T07:26:16;1.90;99.90
61841;DHT22;47773;53.174;6.614;2023-03-03T07:28:52;2.00;99.90
61841;DHT22;47773;53.174;6.614;2023-03-03T07:31:26;2.10;99.90
61841;DHT22;47773;53.174;6.614;2023-03-03T07:33:53;2.20;99.90
61841;DHT22;47773;53.174;6.614;2023-03-03T07:36:30;2.20;99.90
61841;DHT22;47773;53.174;6.614;2023-03-03T07:39:01;2.40;99.90
61841;DHT22;47773;53.174;6.614;2023-03-03T07:41:30;2.50;99.90
61841;DHT22;47773;53.174;6.614;2023-03-03T07:44:27;2.50;99.90
61841;DHT22;47773;53.174;6.614;2023-03-03T07:46:54;2.70;99.90
61841;DHT22;47773;53.174;6.614;2023-03-03T07:49:32;2.70;99.90
61841;DHT22;47773;53.174;6.614;2023-03-03T07:52:00;2.80;99.90
61841;DHT22;47773;53.174;6.614;2023-03-03T07:54:35;2.80;99.90
61841;DHT22;47773;53.174;6.614;2023-03-03T07:57:26;2.80;99.90
61841;DHT22;47773;53.174;6.614;2023-03-03T08:00:08;2.80;99.90
61841;DHT22;47773;53.174;6.614;2023-03-03T08:02:52;2.70;99.90
61841;DHT22;47773;53.174;6.614;2023-03-03T08:07:46;2.60;99.90
61841;DHT22;47773;53.174;6.614;2023-03-03T08:10:48;2.60;99.90
61841;DHT22;47773;53.174;6.614;2023-03-03T08:18:44;2.60;99.90
61841;DHT22;47773;53.174;6.614;2023-03-03T08:23:41;2.60;99.90
61841;DHT22;47773;53.174;6.614;2023-03-03T08:26:07;2.60;99.90
61841;DHT22;47773;53.174;6.614;2023-03-03T08:28:33;2.60;99.90
61841;DHT22;47773;53.174;6.614;2023-03-03T08:30:59;2.70;99.90
61841;DHT22;47773;53.174;6.614;2023-03-03T08:33:25;2.70;99.90
61841;DHT22;47773;53.174;6.614;2023-03-03T08:35:51;2.80;99.90
61841;DHT22;47773;53.174;6.614;2023-03-03T08:38:18;2.80;99.90
61841;DHT22;47773;53.174;6.614;2023-03-03T08:40:45;2.80;99.90
61841;DHT22;47773;53.174;6.614;2023-03-03T08:43:11;2.80;99.90
61841;DHT22;47773;53.174;6.614;2023-03-03T08:45:46;2.80;99.90
61841;DHT22;47773;53.174;6.614;2023-03-03T08:48:12;2.90;99.90
61841;DHT22;47773;53.174;6.614;2023-03-03T08:50:37;2.90;99.90
61841;DHT22;47773;53.174;6.614;2023-03-03T08:53:04;2.90;99.90
61841;DHT22;47773;53.174;6.614;2023-03-03T08:55:30;3.00;99.90
61841;DHT22;47773;53.174;6.614;2023-03-03T08:57:56;3.00;99.90
61841;DHT22;47773;53.174;6.614;2023-03-03T09:00:22;3.10;99.90
61841;DHT22;47773;53.174;6.614;2023-03-03T09:02:48;3.10;99.90
61841;DHT22;47773;53.174;6.614;2023-03-03T09:05:17;3.10;99.90
61841;DHT22;47773;53.174;6.614;2023-03-03T09:07:44;3.10;99.90
61841;DHT22;47773;53.174;6.614;2023-03-03T09:10:12;3.20;99.90
61841;DHT22;47773;53.174;6.614;2023-03-03T09:12:41;3.20;99.90
61841;DHT22;47773;53.174;6.614;2023-03-03T09:15:29;3.30;99.90
61841;DHT22;47773;53.174;6.614;2023-03-03T09:18:30;3.30;99.90
61841;DHT22;47773;53.174;6.614;2023-03-03T09:20:59;3.40;99.90
61841;DHT22;47773;53.174;6.614;2023-03-03T09:23:46;3.50;99.90
61841;DHT22;47773;53.174;6.614;2023-03-03T09:26:29;3.60;99.90
61841;DHT22;47773;53.174;6.614;2023-03-03T09:31:53;3.70;99.90
61841;DHT22;47773;53.174;6.614;2023-03-03T09:34:40;3.80;99.90
61841;DHT22;47773;53.174;6.614;2023-03-03T09:37:27;3.90;99.90
61841;DHT22;47773;53.174;6.614;2023-03-03T09:39:56;3.90;99.90
61841;DHT22;47773;53.174;6.614;2023-03-03T09:42:35;4.00;99.90
61841;DHT22;47773;53.174;6.614;2023-03-03T09:45:12;4.10;99.90
61841;DHT22;47773;53.174;6.614;2023-03-03T10:03:59;5.00;99.90
61841;DHT22;47773;53.174;6.614;2023-03-03T10:07:00;5.20;99.90
61841;DHT22;47773;53.174;6.614;2023-03-03T10:24:22;5.90;99.90
61841;DHT22;47773;53.174;6.614;2023-03-03T10:34:53;6.20;99.90
61841;DHT22;47773;53.174;6.614;2023-03-03T10:41:00;6.30;99.90
61841;DHT22;47773;53.174;6.614;2023-03-03T10:57:57;6.90;99.90
61841;DHT22;47773;53.174;6.614;2023-03-03T11:00:28;6.90;99.90
61841;DHT22;47773;53.174;6.614;2023-03-03T11:03:15;7.10;99.90
61841;DHT22;47773;53.174;6.614;2023-03-03T11:05:57;7.20;99.90
61841;DHT22;47773;53.174;6.614;2023-03-03T11:08:38;7.20;99.90
61841;DHT22;47773;53.174;6.614;2023-03-03T11:33:07;7.60;99.90
61841;DHT22;47773;53.174;6.614;2023-03-03T11:40:54;8.00;99.90
61841;DHT22;47773;53.174;6.614;2023-03-03T11:45:56;8.10;99.90
61841;DHT22;47773;53.174;6.614;2023-03-03T11:48:49;8.10;99.90
61841;DHT22;47773;53.174;6.614;2023-03-03T11:51:33;8.00;99.90
61841;DHT22;47773;53.174;6.614;2023-03-03T11:56:42;7.90;99.90
61841;DHT22;47773;53.174;6.614;2023-03-03T12:02:24;7.90;99.90
61841;DHT22;47773;53.174;6.614;2023-03-03T12:05:00;7.90;99.90
61841;DHT22;47773;53.174;6.614;2023-03-03T12:12:44;8.40;99.90
61841;DHT22;47773;53.174;6.614;2023-03-03T12:15:32;8.70;99.90
61841;DHT22;47773;53.174;6.614;2023-03-03T12:20:59;9.00;99.90
61841;DHT22;47773;53.174;6.614;2023-03-03T12:26:36;9.10;99.90
61841;DHT22;47773;53.174;6.614;2023-03-03T12:29:18;9.10;99.90
61841;DHT22;47773;53.174;6.614;2023-03-03T12:32:19;9.10;99.90
61841;DHT22;47773;53.174;6.614;2023-03-03T12:37:46;9.00;99.90
61841;DHT22;47773;53.174;6.614;2023-03-03T12:40:28;9.00;99.90
61841;DHT22;47773;53.174;6.614;2023-03-03T12:48:41;9.00;99.90
61841;DHT22;47773;53.174;6.614;2023-03-03T12:51:36;9.00;99.90
61841;DHT22;47773;53.174;6.614;2023-03-03T12:54:23;9.00;99.90
61841;DHT22;47773;53.174;6.614;2023-03-03T13:11:43;8.80;99.90
61841;DHT22;47773;53.174;6.614;2023-03-03T13:14:50;8.80;99.90
61841;DHT22;47773;53.174;6.614;2023-03-03T13:17:27;8.70;99.90
61841;DHT22;47773;53.174;6.614;2023-03-03T13:19:58;8.70;99.90
61841;DHT22;47773;53.174;6.614;2023-03-03T13:22:34;8.90;99.90
61841;DHT22;47773;53.174;6.614;2023-03-03T13:25:18;9.00;99.90
61841;DHT22;47773;53.174;6.614;2023-03-03T13:27:48;9.20;99.90
61841;DHT22;47773;53.174;6.614;2023-03-03T13:30:22;9.20;99.90
61841;DHT22;47773;53.174;6.614;2023-03-03T13:35:47;9.20;99.90
61841;DHT22;47773;53.174;6.614;2023-03-03T13:38:21;9.20;99.90
61841;DHT22;47773;53.174;6.614;2023-03-03T13:40:56;9.20;99.90
61841;DHT22;47773;53.174;6.614;2023-03-03T13:43:40;9.10;99.90
61841;DHT22;47773;53.174;6.614;2023-03-03T13:46:33;9.10;99.90
61841;DHT22;47773;53.174;6.614;2023-03-03T13:49:18;9.10;99.90
61841;DHT22;47773;53.174;6.614;2023-03-03T13:57:20;9.00;99.90
61841;DHT22;47773;53.174;6.614;2023-03-03T14:05:59;9.00;99.90
61841;DHT22;47773;53.174;6.614;2023-03-03T14:11:43;9.00;99.90
61841;DHT22;47773;53.174;6.614;2023-03-03T14:14:40;9.00;99.90
61841;DHT22;47773;53.174;6.614;2023-03-03T14:20:18;9.00;99.90
61841;DHT22;47773;53.174;6.614;2023-03-03T14:22:55;9.00;99.90
61841;DHT22;47773;53.174;6.614;2023-03-03T14:25:22;9.00;99.90
61841;DHT22;47773;53.174;6.614;2023-03-03T14:27:58;8.80;99.90
61841;DHT22;47773;53.174;6.614;2023-03-03T14:30:38;8.80;99.90
61841;DHT22;47773;53.174;6.614;2023-03-03T14:35:41;8.60;99.90
61841;DHT22;47773;53.174;6.614;2023-03-03T14:40:35;8.50;99.90
61841;DHT22;47773;53.174;6.614;2023-03-03T14:43:18;8.50;99.90
61841;DHT22;47773;53.174;6.614;2023-03-03T14:45:44;8.50;99.90
61841;DHT22;47773;53.174;6.614;2023-03-03T14:50:47;8.50;99.90
61841;DHT22;47773;53.174;6.614;2023-03-03T14:55:46;8.40;99.90
61841;DHT22;47773;53.174;6.614;2023-03-03T14:58:37;8.40;99.90
61841;DHT22;47773;53.174;6.614;2023-03-03T15:01:55;8.30;99.90
61841;DHT22;47773;53.174;6.614;2023-03-03T15:09:34;8.20;99.90
61841;DHT22;47773;53.174;6.614;2023-03-03T15:17:41;8.10;99.90
61841;DHT22;47773;53.174;6.614;2023-03-03T15:23:41;8.10;99.90
61841;DHT22;47773;53.174;6.614;2023-03-03T15:26:20;8.10;99.90
61841;DHT22;47773;53.174;6.614;2023-03-03T15:29:21;8.10;99.90
61841;DHT22;47773;53.174;6.614;2023-03-03T15:34:45;8.00;99.90
61841;DHT22;47773;53.174;6.614;2023-03-03T15:40:01;8.10;99.90
61841;DHT22;47773;53.174;6.614;2023-03-03T15:53:29;7.90;99.90
61841;DHT22;47773;53.174;6.614;2023-03-03T15:56:30;7.90;99.90
61841;DHT22;47773;53.174;6.614;2023-03-03T16:05:02;7.80;99.90
61841;DHT22;47773;53.174;6.614;2023-03-03T16:07:39;7.80;99.90
61841;DHT22;47773;53.174;6.614;2023-03-03T16:10:56;7.80;99.90
61841;DHT22;47773;53.174;6.614;2023-03-03T16:12:57;7.70;99.90
61841;DHT22;47773;53.174;6.614;2023-03-03T16:21:40;7.70;99.90
61841;DHT22;47773;53.174;6.614;2023-03-03T16:35:32;7.60;99.90
61841;DHT22;47773;53.174;6.614;2023-03-03T16:38:05;7.60;99.90
61841;DHT22;47773;53.174;6.614;2023-03-03T16:40:54;7.60;99.90
61841;DHT22;47773;53.174;6.614;2023-03-03T16:43:39;7.50;99.90
61841;DHT22;47773;53.174;6.614;2023-03-03T16:46:32;7.50;99.90
61841;DHT22;47773;53.174;6.614;2023-03-03T16:49:24;7.40;99.90
61841;DHT22;47773;53.174;6.614;2023-03-03T16:52:06;7.40;99.90
61841;DHT22;47773;53.174;6.614;2023-03-03T16:54:43;7.40;99.90
61841;DHT22;47773;53.174;6.614;2023-03-03T16:59:59;7.40;99.90
61841;DHT22;47773;53.174;6.614;2023-03-03T17:08:11;7.40;99.90
61841;DHT22;47773;53.174;6.614;2023-03-03T17:20:48;7.30;99.90
61841;DHT22;47773;53.174;6.614;2023-03-03T17:47:10;7.20;99.90
61841;DHT22;47773;53.174;6.614;2023-03-03T17:56:09;7.10;99.90
61841;DHT22;47773;53.174;6.614;2023-03-03T17:58:47;7.10;99.90
61841;DHT22;47773;53.174;6.614;2023-03-03T18:01:47;7.20;99.90
61841;DHT22;47773;53.174;6.614;2023-03-03T18:10:24;7.20;99.90
61841;DHT22;47773;53.174;6.614;2023-03-03T18:21:14;7.20;99.90
61841;DHT22;47773;53.174;6.614;2023-03-03T18:23:45;7.20;99.90
61841;DHT22;47773;53.174;6.614;2023-03-03T18:26:32;7.10;99.90
61841;DHT22;47773;53.174;6.614;2023-03-03T18:29:18;7.20;99.90
61841;DHT22;47773;53.174;6.614;2023-03-03T18:34:40;7.20;99.90
61841;DHT22;47773;53.174;6.614;2023-03-03T18:40:20;7.20;99.90
61841;DHT22;47773;53.174;6.614;2023-03-03T18:42:51;7.20;99.90
61841;DHT22;47773;53.174;6.614;2023-03-03T18:48:04;7.10;99.90
61841;DHT22;47773;53.174;6.614;2023-03-03T18:56:09;7.00;99.90
61841;DHT22;47773;53.174;6.614;2023-03-03T18:58:38;7.00;99.90
61841;DHT22;47773;53.174;6.614;2023-03-03T19:09:10;6.90;99.90
61841;DHT22;47773;53.174;6.614;2023-03-03T19:14:19;7.00;99.90
61841;DHT22;47773;53.174;6.614;2023-03-03T19:20:10;6.90;99.90
61841;DHT22;47773;53.174;6.614;2023-03-03T19:22:51;7.00;99.90
61841;DHT22;47773;53.174;6.614;2023-03-03T19:25:24;7.00;99.90
61841;DHT22;47773;53.174;6.614;2023-03-03T19:35:52;6.90;99.90
61841;DHT22;47773;53.174;6.614;2023-03-03T19:38:54;6.80;99.90
61841;DHT22;47773;53.174;6.614;2023-03-03T19:47:38;6.80;99.90
61841;DHT22;47773;53.174;6.614;2023-03-03T19:52:59;6.70;99.90
61841;DHT22;47773;53.174;6.614;2023-03-03T19:56:44;6.70;99.90
61841;DHT22;47773;53.174;6.614;2023-03-03T20:01:45;6.70;99.90
61841;DHT22;47773;53.174;6.614;2023-03-03T20:10:42;6.70;99.90
61841;DHT22;47773;53.174;6.614;2023-03-03T20:15:22;6.70;99.90
61841;DHT22;47773;53.174;6.614;2023-03-03T20:23:21;6.70;99.90
61841;DHT22;47773;53.174;6.614;2023-03-03T20:25:56;6.80;99.90
61841;DHT22;47773;53.174;6.614;2023-03-03T20:30:58;6.80;99.90
61841;DHT22;47773;53.174;6.614;2023-03-03T20:38:41;6.80;99.90
61841;DHT22;47773;53.174;6.614;2023-03-03T20:43:58;6.80;99.90
61841;DHT22;47773;53.174;6.614;2023-03-03T20:46:52;6.70;99.90
61841;DHT22;47773;53.174;6.614;2023-03-03T20:52:11;6.80;99.90
61841;DHT22;47773;53.174;6.614;2023-03-03T20:55:07;6.80;99.90
61841;DHT22;47773;53.174;6.614;2023-03-03T21:03:28;6.80;99.90
61841;DHT22;47773;53.174;6.614;2023-03-03T21:06:00;6.80;99.90
61841;DHT22;47773;53.174;6.614;2023-03-03T21:08:51;6.80;99.90
61841;DHT22;47773;53.174;6.614;2023-03-03T21:11:21;6.80;99.90
61841;DHT22;47773;53.174;6.614;2023-03-03T21:13:49;6.80;99.90
61841;DHT22;47773;53.174;6.614;2023-03-03T21:21:26;6.80;99.90
61841;DHT22;47773;53.174;6.614;2023-03-03T21:23:52;6.80;99.90
61841;DHT22;47773;53.174;6.614;2023-03-03T21:26:43;6.80;99.90
61841;DHT22;47773;53.174;6.614;2023-03-03T21:29:19;6.80;99.90
61841;DHT22;47773;53.174;6.614;2023-03-03T21:31:47;6.80;99.90
61841;DHT22;47773;53.174;6.614;2023-03-03T21:36:48;6.80;99.90
61841;DHT22;47773;53.174;6.614;2023-03-03T21:39:19;6.80;99.90
61841;DHT22;47773;53.174;6.614;2023-03-03T21:41:53;6.80;99.90
61841;DHT22;47773;53.174;6.614;2023-03-03T21:44:41;6.70;99.90
61841;DHT22;47773;53.174;6.614;2023-03-03T21:47:21;6.70;99.90
61841;DHT22;47773;53.174;6.614;2023-03-03T21:49:49;6.80;99.90
61841;DHT22;47773;53.174;6.614;2023-03-03T21:52:17;6.80;99.90
61841;DHT22;47773;53.174;6.614;2023-03-03T21:54:44;6.70;99.90
61841;DHT22;47773;53.174;6.614;2023-03-03T21:57:11;6.80;99.90
61841;DHT22;47773;53.174;6.614;2023-03-03T21:59:37;6.70;99.90
61841;DHT22;47773;53.174;6.614;2023-03-03T22:02:03;6.70;99.90
61841;DHT22;47773;53.174;6.614;2023-03-03T22:04:29;6.70;99.90
61841;DHT22;47773;53.174;6.614;2023-03-03T22:06:55;6.70;99.90
61841;DHT22;47773;53.174;6.614;2023-03-03T22:09:21;6.80;99.90
61841;DHT22;47773;53.174;6.614;2023-03-03T22:11:46;6.70;99.90
61841;DHT22;47773;53.174;6.614;2023-03-03T22:14:13;6.70;99.90
61841;DHT22;47773;53.174;6.614;2023-03-03T22:16:39;6.70;99.90
61841;DHT22;47773;53.174;6.614;2023-03-03T22:19:05;6.70;99.90
61841;DHT22;47773;53.174;6.614;2023-03-03T22:21:34;6.70;99.90
61841;DHT22;47773;53.174;6.614;2023-03-03T22:24:00;6.80;99.90
61841;DHT22;47773;53.174;6.614;2023-03-03T22:26:26;6.80;99.90
61841;DHT22;47773;53.174;6.614;2023-03-03T22:28:52;6.80;99.90
61841;DHT22;47773;53.174;6.614;2023-03-03T22:31:18;6.80;99.90
61841;DHT22;47773;53.174;6.614;2023-03-03T22:33:45;6.70;99.90
61841;DHT22;47773;53.174;6.614;2023-03-03T22:36:11;6.80;99.90
61841;DHT22;47773;53.174;6.614;2023-03-03T22:38:37;6.70;99.90
61841;DHT22;47773;53.174;6.614;2023-03-03T22:41:03;6.80;99.90
61841;DHT22;47773;53.174;6.614;2023-03-03T22:43:29;6.80;99.90